createdAt,value
2018-10-05T00:00:14.787Z,81.25
2018-10-05T00:02:44.995Z,81.08
2018-10-05T00:05:15.209Z,80.86
2018-10-05T00:07:45.424Z,81.07
2018-10-05T00:10:15.655Z,81.81
2018-10-05T00:12:45.957Z,80.59
2018-10-05T00:15:16.120Z,80.79
2018-10-05T00:17:46.290Z,81.16
2018-10-05T00:20:16.482Z,80.94
2018-10-05T00:22:46.688Z,80.84
2018-10-05T00:25:16.840Z,81.75
2018-10-05T00:27:47.008Z,80.90
2018-10-05T00:30:17.263Z,81.22
2018-10-05T00:32:47.575Z,80.66
2018-10-05T00:35:17.732Z,81.61
2018-10-05T00:37:47.944Z,81.32
2018-10-05T00:40:18.140Z,81.23
2018-10-05T00:42:48.392Z,80.94
2018-10-05T00:45:18.577Z,81.67
2018-10-05T00:47:48.836Z,81.12
2018-10-05T00:50:19.276Z,81.45
2018-10-05T00:52:49.516Z,81.05
2018-10-05T00:55:19.644Z,81.20
2018-10-05T00:57:49.868Z,82.32
2018-10-05T01:00:20.030Z,81.44
2018-10-05T01:02:50.195Z,82.01
2018-10-05T01:05:20.330Z,81.34
2018-10-05T01:07:50.502Z,82.20
2018-10-05T01:10:20.689Z,81.48
2018-10-05T01:12:50.856Z,82.44
2018-10-05T01:15:21.042Z,81.44
2018-10-05T01:17:51.244Z,82.25
2018-10-05T01:20:21.494Z,81.88
2018-10-05T01:22:52.002Z,82.49
2018-10-05T01:25:22.144Z,82.90
2018-10-05T01:27:52.326Z,82.22
2018-10-05T01:30:22.494Z,81.91
2018-10-05T01:32:53.185Z,82.03
2018-10-05T01:35:23.354Z,81.91
2018-10-05T01:37:53.577Z,81.00
2018-10-05T01:40:23.709Z,82.12
2018-10-05T01:42:53.869Z,82.42
2018-10-05T01:45:24.527Z,82.01
2018-10-05T01:47:54.731Z,82.06
2018-10-05T01:50:24.890Z,82.29
2018-10-05T01:52:55.089Z,81.69
2018-10-05T01:55:25.301Z,81.79
2018-10-05T01:57:55.501Z,82.01
2018-10-05T02:00:25.733Z,81.38
2018-10-05T02:02:56.108Z,82.38
2018-10-05T02:05:26.310Z,81.96
2018-10-05T02:07:56.590Z,81.89
2018-10-05T02:10:26.763Z,81.93
2018-10-05T02:12:56.923Z,80.82
2018-10-05T02:15:27.069Z,81.28
2018-10-05T02:17:57.240Z,81.86
2018-10-05T02:20:27.401Z,83.33
2018-10-05T02:22:57.581Z,83.15
2018-10-05T02:25:27.751Z,83.14
2018-10-05T02:27:58.025Z,82.01
2018-10-05T02:30:28.252Z,82.19
2018-10-05T02:32:58.530Z,81.49
2018-10-05T02:35:28.576Z,81.46
2018-10-05T02:37:58.731Z,80.98
2018-10-05T02:40:28.869Z,82.33
2018-10-05T02:42:59.041Z,81.44
2018-10-05T02:45:29.237Z,82.18
2018-10-05T02:48:00.298Z,83.33
2018-10-05T02:50:30.492Z,83.03
2018-10-05T02:53:00.671Z,83.58
2018-10-05T02:55:30.814Z,83.27
2018-10-05T02:58:00.996Z,82.99
2018-10-05T03:00:48.101Z,82.55
2018-10-05T03:03:18.249Z,82.53
2018-10-05T03:05:48.469Z,81.84
2018-10-05T03:08:18.635Z,81.75
2018-10-05T03:10:48.787Z,81.13
2018-10-05T03:13:19.005Z,82.56
2018-10-05T03:15:49.247Z,81.48
2018-10-05T03:18:19.414Z,82.03
2018-10-05T03:20:49.584Z,82.27
2018-10-05T03:23:19.747Z,82.53
2018-10-05T03:25:49.919Z,83.00
2018-10-05T03:28:20.090Z,82.12
2018-10-05T03:30:50.311Z,82.62
2018-10-05T03:33:20.527Z,82.86
2018-10-05T03:35:50.778Z,82.58
2018-10-05T03:38:20.958Z,81.58
2018-10-05T03:40:51.096Z,82.44
2018-10-05T03:43:21.318Z,83.15
2018-10-05T03:45:51.701Z,81.95
2018-10-05T03:48:21.875Z,82.26
2018-10-05T03:50:52.077Z,82.38
2018-10-05T03:53:22.280Z,81.81
2018-10-05T03:55:52.536Z,82.64
2018-10-05T03:58:22.760Z,83.12
2018-10-05T04:00:52.939Z,82.53
2018-10-05T04:03:23.119Z,82.27
2018-10-05T04:05:53.388Z,82.29
2018-10-05T04:08:23.605Z,82.29
2018-10-05T04:10:53.779Z,82.71
2018-10-05T04:13:24.045Z,82.30
2018-10-05T04:15:54.252Z,83.40
2018-10-05T04:18:24.469Z,83.87
2018-10-05T04:20:55.667Z,83.19
2018-10-05T04:23:25.898Z,84.84
2018-10-05T04:25:56.095Z,86.75
2018-10-05T04:28:26.320Z,85.91
2018-10-05T04:30:56.532Z,85.46
2018-10-05T04:33:26.761Z,85.77
2018-10-05T04:35:56.941Z,86.28
2018-10-05T04:38:27.194Z,85.97
2018-10-05T04:40:57.345Z,85.16
2018-10-05T04:43:27.554Z,85.11
2018-10-05T04:45:58.329Z,85.13
2018-10-05T04:48:28.514Z,85.04
2018-10-05T04:50:58.707Z,85.58
2018-10-05T04:53:28.985Z,85.29
2018-10-05T04:55:59.211Z,84.78
2018-10-05T04:58:29.433Z,85.15
2018-10-05T05:00:59.653Z,85.42
2018-10-05T05:03:29.951Z,85.67
2018-10-05T05:06:00.221Z,85.86
2018-10-05T05:08:30.437Z,85.83
2018-10-05T05:11:00.682Z,85.93
2018-10-05T05:13:30.929Z,86.55
2018-10-05T05:16:01.176Z,86.08
2018-10-05T05:18:31.408Z,86.86
2018-10-05T05:21:01.614Z,88.22
2018-10-05T05:23:31.819Z,88.06
2018-10-05T05:26:02.052Z,86.85
2018-10-05T05:28:33.782Z,86.37
2018-10-05T05:31:04.038Z,86.38
2018-10-05T05:33:34.384Z,86.73
2018-10-05T05:36:04.568Z,86.61
2018-10-05T05:38:34.821Z,86.75
2018-10-05T05:41:05.072Z,85.95
2018-10-05T05:43:35.444Z,87.18
2018-10-05T05:46:05.690Z,85.76
2018-10-05T05:48:35.991Z,87.21
2018-10-05T05:51:06.247Z,86.78
2018-10-05T05:53:36.508Z,87.06
2018-10-05T05:56:06.928Z,86.42
2018-10-05T05:58:37.188Z,86.66
2018-10-05T06:01:08.486Z,88.04
2018-10-05T06:03:39.468Z,87.90
2018-10-05T06:06:09.713Z,88.50
2018-10-05T06:08:40.502Z,88.02
2018-10-05T06:11:10.706Z,87.26
2018-10-05T06:13:40.972Z,87.64
2018-10-05T06:16:11.301Z,87.30
2018-10-05T06:18:41.474Z,86.97
2018-10-05T06:21:11.723Z,86.27
2018-10-05T06:23:41.962Z,85.91
2018-10-05T06:26:12.183Z,84.41
2018-10-05T06:28:42.428Z,84.68
2018-10-05T06:31:12.676Z,86.43
2018-10-05T06:33:42.903Z,86.82
2018-10-05T06:36:13.165Z,86.60
2018-10-05T06:38:43.415Z,86.53
2018-10-05T06:41:13.640Z,85.53
2018-10-05T06:43:43.968Z,85.48
2018-10-05T06:46:14.255Z,86.57
2018-10-05T06:48:44.494Z,86.74
2018-10-05T06:51:14.773Z,86.95
2018-10-05T06:53:44.948Z,87.02
2018-10-05T06:56:15.197Z,86.50
2018-10-05T06:58:45.405Z,87.78
2018-10-05T07:01:15.650Z,86.34
2018-10-05T07:03:45.941Z,88.53
2018-10-05T07:06:16.256Z,88.88
2018-10-05T07:08:46.645Z,88.03
2018-10-05T07:11:16.921Z,88.03
2018-10-05T07:13:47.156Z,86.59
2018-10-05T07:16:17.397Z,87.26
2018-10-05T07:18:47.661Z,85.87
2018-10-05T07:21:17.911Z,86.21
2018-10-05T07:23:48.150Z,85.17
2018-10-05T07:26:18.457Z,85.27
2018-10-05T07:28:48.835Z,85.64
2018-10-05T07:31:19.076Z,85.11
2018-10-05T07:33:49.401Z,83.94
2018-10-05T07:36:19.587Z,84.24
2018-10-05T07:38:49.869Z,83.87
2018-10-05T07:41:20.157Z,82.34
2018-10-05T07:43:50.394Z,83.44
2018-10-05T07:46:20.662Z,82.48
2018-10-05T07:48:50.918Z,81.48
2018-10-05T07:51:21.085Z,81.90
2018-10-05T07:53:51.494Z,82.83
2018-10-05T07:56:21.710Z,82.16
2018-10-05T07:58:51.991Z,82.79
2018-10-05T08:01:22.197Z,82.71
2018-10-05T08:03:52.616Z,81.95
2018-10-05T08:06:22.976Z,81.33
2018-10-05T08:08:53.292Z,81.04
2018-10-05T08:11:23.603Z,81.24
2018-10-05T08:13:54.130Z,79.70
2018-10-05T08:16:24.742Z,79.95
2018-10-05T08:18:55.040Z,78.64
2018-10-05T08:21:25.488Z,79.24
2018-10-05T08:23:56.032Z,79.75
2018-10-05T08:26:26.334Z,78.40
2018-10-05T08:28:56.931Z,79.39
2018-10-05T08:31:27.304Z,79.62
2018-10-05T08:33:57.720Z,78.24
2018-10-05T08:36:28.525Z,77.44
2018-10-05T08:38:58.824Z,77.60
2018-10-05T08:41:29.287Z,77.31
2018-10-05T08:43:59.587Z,76.90
2018-10-05T08:46:30.035Z,74.88
2018-10-05T08:49:01.503Z,74.95
2018-10-05T08:51:32.365Z,74.57
2018-10-05T08:54:10.650Z,74.25
2018-10-05T08:56:40.878Z,74.09
2018-10-05T08:59:11.084Z,74.94
2018-10-05T09:01:41.522Z,73.96
2018-10-05T09:04:11.861Z,73.72
2018-10-05T09:06:42.129Z,72.36
2018-10-05T09:09:12.420Z,73.24
2018-10-05T09:11:42.671Z,73.08
2018-10-05T09:14:12.881Z,72.46
2018-10-05T09:16:43.161Z,71.56
2018-10-05T09:19:13.417Z,71.73
2018-10-05T09:21:43.638Z,72.17
2018-10-05T09:24:14.089Z,71.63
2018-10-05T09:26:44.386Z,71.36
2018-10-05T09:29:14.942Z,71.44
2018-10-05T09:31:45.244Z,69.82
2018-10-05T09:34:15.660Z,69.60
2018-10-05T09:36:45.920Z,70.09
2018-10-05T09:39:16.211Z,68.71
2018-10-05T09:41:49.579Z,68.50
2018-10-05T09:44:20.243Z,68.03
2018-10-05T09:46:50.464Z,67.54
2018-10-05T09:49:21.573Z,67.13
2018-10-05T09:51:51.767Z,67.75
2018-10-05T09:54:22.755Z,67.22
2018-10-05T09:56:53.125Z,66.84
2018-10-05T09:59:23.390Z,66.69
2018-10-05T10:04:01.405Z,66.10
2018-10-05T10:06:31.638Z,66.92
2018-10-05T10:09:01.812Z,64.28
2018-10-05T10:11:32.032Z,63.85
2018-10-05T10:14:02.391Z,63.99
2018-10-05T10:16:32.603Z,63.89
2018-10-05T10:19:02.931Z,63.63
2018-10-05T10:21:33.419Z,63.83
2018-10-05T10:24:03.702Z,62.40
2018-10-05T10:26:34.046Z,62.83
2018-10-05T10:29:04.348Z,62.34
2018-10-05T10:31:34.540Z,61.33
2018-10-05T10:34:04.862Z,61.69
2018-10-05T10:36:35.407Z,60.91
2018-10-05T10:39:07.820Z,60.16
2018-10-05T10:41:37.965Z,61.13
2018-10-05T10:44:08.282Z,60.28
2018-10-05T10:46:38.605Z,59.67
2018-10-05T10:49:09.051Z,59.86
2018-10-05T10:51:39.268Z,59.58
2018-10-05T10:54:09.549Z,58.62
2018-10-05T10:56:39.726Z,59.42
2018-10-05T10:59:10.016Z,59.80
2018-10-05T11:01:40.222Z,59.85
2018-10-05T11:04:10.512Z,59.57
2018-10-05T11:06:40.681Z,58.31
2018-10-05T11:09:10.944Z,57.51
2018-10-05T11:11:41.256Z,57.24
2018-10-05T11:14:11.476Z,57.99
2018-10-05T11:16:41.736Z,58.45
2018-10-05T11:19:11.942Z,57.75
2018-10-05T11:21:42.248Z,57.43
2018-10-05T11:24:12.704Z,55.75
2018-10-05T11:26:42.965Z,54.84
2018-10-05T11:29:13.139Z,55.54
2018-10-05T11:31:43.449Z,55.36
2018-10-05T11:34:13.668Z,54.60
2018-10-05T11:36:43.884Z,55.97
2018-10-05T11:39:14.198Z,54.57
2018-10-05T11:41:44.444Z,54.91
2018-10-05T11:44:14.796Z,55.08
2018-10-05T11:46:44.982Z,52.94
2018-10-05T11:49:15.266Z,54.67
2018-10-05T11:51:45.610Z,52.88
2018-10-05T11:54:16.816Z,54.01
2018-10-05T11:56:47.072Z,52.60
2018-10-05T11:59:17.364Z,53.27
2018-10-05T12:01:47.568Z,52.31
2018-10-05T12:04:17.966Z,52.05
2018-10-05T12:06:48.282Z,52.52
2018-10-05T12:09:18.487Z,51.13
2018-10-05T12:11:48.932Z,51.95
2018-10-05T12:14:19.428Z,52.33
2018-10-05T12:16:49.708Z,51.78
2018-10-05T12:19:20.038Z,51.06
2018-10-05T12:21:50.345Z,51.23
2018-10-05T12:24:20.509Z,50.75
2018-10-05T12:26:51.649Z,51.86
2018-10-05T12:29:21.785Z,50.34
2018-10-05T12:31:52.175Z,49.69
2018-10-05T12:34:22.406Z,51.94
2018-10-05T12:36:52.875Z,49.69
2018-10-05T12:39:23.044Z,50.39
2018-10-05T12:41:53.377Z,49.73
2018-10-05T12:44:23.576Z,49.95
2018-10-05T12:46:53.928Z,49.15
2018-10-05T12:49:24.282Z,49.51
2018-10-05T12:51:54.678Z,49.03
2018-10-05T12:54:25.470Z,48.14
2018-10-05T12:56:55.872Z,47.90
2018-10-05T12:59:26.380Z,48.83
2018-10-05T13:01:56.753Z,47.19
2018-10-05T13:04:26.994Z,48.21
2018-10-05T13:06:57.425Z,46.97
2018-10-05T13:09:27.732Z,47.04
2018-10-05T13:11:58.091Z,49.31
2018-10-05T13:14:28.344Z,50.17
2018-10-05T13:16:58.598Z,49.32
2018-10-05T13:19:28.935Z,50.32
2018-10-05T13:21:59.395Z,49.82
2018-10-05T13:24:29.553Z,48.80
2018-10-05T13:26:59.788Z,49.97
2018-10-05T13:29:30.106Z,47.81
2018-10-05T13:32:00.316Z,49.27
2018-10-05T13:34:30.535Z,50.33
2018-10-05T13:37:00.850Z,49.44
2018-10-05T13:39:31.084Z,50.46
2018-10-05T13:42:01.349Z,48.46
2018-10-05T13:44:31.529Z,49.22
2018-10-05T13:47:01.825Z,49.76
2018-10-05T13:49:34.636Z,49.43
2018-10-05T13:52:05.235Z,50.45
2018-10-05T13:54:35.513Z,50.65
2018-10-05T13:57:06.459Z,51.49
2018-10-05T13:59:36.644Z,51.17
2018-10-05T14:02:07.181Z,50.28
2018-10-05T14:04:37.385Z,49.98
2018-10-05T14:07:08.104Z,50.27
2018-10-05T14:09:38.363Z,50.40
2018-10-05T14:12:08.746Z,50.80
2018-10-05T14:14:39.067Z,50.54
2018-10-05T14:17:09.515Z,50.29
2018-10-05T14:19:39.780Z,50.60
2018-10-05T14:22:10.803Z,50.78
2018-10-05T14:24:41.082Z,51.05
2018-10-05T14:27:11.391Z,50.50
2018-10-05T14:29:41.644Z,50.95
2018-10-05T14:32:11.979Z,51.48
2018-10-05T14:34:42.221Z,50.68
2018-10-05T14:37:12.513Z,50.97
2018-10-05T14:39:42.949Z,51.22
2018-10-05T14:42:13.823Z,50.63
2018-10-05T14:44:44.105Z,51.11
2018-10-05T14:47:14.605Z,50.88
2018-10-05T14:49:44.939Z,50.61
2018-10-05T14:52:19.297Z,50.61
2018-10-05T14:54:49.555Z,51.12
2018-10-05T14:57:20.153Z,51.29
2018-10-05T14:59:50.741Z,51.65
2018-10-05T15:02:21.103Z,51.48
2018-10-05T15:04:51.295Z,51.15
2018-10-05T15:07:21.607Z,51.96
2018-10-05T15:09:51.832Z,51.82
2018-10-05T15:12:22.074Z,51.95
2018-10-05T15:14:52.332Z,51.99
2018-10-05T15:17:22.577Z,52.07
2018-10-05T15:19:52.836Z,51.90
2018-10-05T15:22:23.292Z,53.38
2018-10-05T15:24:53.565Z,52.47
2018-10-05T15:27:23.911Z,51.43
2018-10-05T15:29:54.118Z,51.79
2018-10-05T15:32:24.417Z,51.51
2018-10-05T15:34:54.657Z,51.59
2018-10-05T15:37:24.966Z,51.93
2018-10-05T15:39:55.199Z,52.70
2018-10-05T15:42:25.577Z,52.57
2018-10-05T15:44:55.799Z,52.35
2018-10-05T15:47:26.175Z,52.13
2018-10-05T15:49:56.435Z,52.01
2018-10-05T15:52:26.722Z,52.44
2018-10-05T15:54:56.911Z,52.13
2018-10-05T15:57:27.138Z,52.74
2018-10-05T15:59:57.383Z,52.48
2018-10-05T16:02:27.669Z,53.02
2018-10-05T16:04:57.875Z,53.00
2018-10-05T16:07:28.095Z,53.91
2018-10-05T16:09:58.339Z,55.04
2018-10-05T16:12:28.656Z,55.68
2018-10-05T16:14:58.781Z,55.48
2018-10-05T16:17:29.052Z,56.79
2018-10-05T16:19:59.592Z,56.67
2018-10-05T16:22:29.781Z,57.49
2018-10-05T16:25:00.154Z,57.68
2018-10-05T16:27:30.423Z,58.19
2018-10-05T16:30:00.660Z,58.57
2018-10-05T16:32:31.005Z,59.01
2018-10-05T16:35:01.356Z,59.88
2018-10-05T16:37:31.782Z,59.49
2018-10-05T16:40:01.929Z,60.29
2018-10-05T16:42:32.371Z,60.76
2018-10-05T16:45:02.710Z,61.94
2018-10-05T16:47:33.117Z,62.69
2018-10-05T16:50:03.436Z,62.55
2018-10-05T16:52:33.806Z,64.34
2018-10-05T16:55:05.150Z,65.21
2018-10-05T16:57:35.403Z,64.63
2018-10-05T17:00:05.777Z,65.23
2018-10-05T17:02:36.151Z,65.15
2018-10-05T17:05:06.532Z,66.01
2018-10-05T17:07:39.970Z,67.81
2018-10-05T17:10:10.218Z,68.13
2018-10-05T17:12:40.454Z,69.28
2018-10-05T17:15:10.690Z,70.10
2018-10-05T17:17:40.982Z,70.09
2018-10-05T17:20:11.764Z,70.12
2018-10-05T17:22:42.542Z,71.55
2018-10-05T17:25:13.252Z,71.44
2018-10-05T17:27:43.505Z,71.34
2018-10-05T17:30:13.836Z,72.07
2018-10-05T17:32:44.094Z,72.60
2018-10-05T17:35:15.581Z,73.05
2018-10-05T17:37:46.338Z,74.33
2018-10-05T17:40:16.886Z,74.07
2018-10-05T17:42:47.141Z,74.79
2018-10-05T17:45:17.340Z,75.01
2018-10-05T17:47:47.710Z,75.08
2018-10-05T17:50:17.983Z,74.68
2018-10-05T17:52:48.302Z,75.33
2018-10-05T17:55:18.713Z,76.09
2018-10-05T17:57:48.888Z,75.79
2018-10-05T18:00:19.096Z,75.86
2018-10-05T18:02:49.417Z,75.48
2018-10-05T18:05:19.663Z,76.15
2018-10-05T18:07:50.046Z,76.18
2018-10-05T18:10:20.248Z,76.79
2018-10-05T18:12:50.495Z,77.11
2018-10-05T18:15:20.693Z,77.45
2018-10-05T18:17:50.966Z,77.53
2018-10-05T18:20:21.296Z,77.65
2018-10-05T18:22:51.838Z,77.33
2018-10-05T18:25:22.084Z,76.84
2018-10-05T18:27:52.344Z,77.54
2018-10-05T18:30:22.591Z,77.43
2018-10-05T18:32:53.108Z,77.27
2018-10-05T18:35:23.688Z,77.94
2018-10-05T18:37:53.972Z,78.06
2018-10-05T18:40:24.211Z,78.75
2018-10-05T18:42:54.469Z,78.69
2018-10-05T18:45:24.734Z,78.72
2018-10-05T18:47:55.022Z,78.42
2018-10-05T18:50:25.242Z,79.43
2018-10-05T18:52:55.521Z,78.62
2018-10-05T18:55:25.747Z,79.24
2018-10-05T18:57:56.231Z,79.40
2018-10-05T19:00:26.530Z,79.74
2018-10-05T19:02:56.812Z,79.36
2018-10-05T19:05:27.055Z,78.72
2018-10-05T19:07:57.318Z,79.39
2018-10-05T19:10:27.637Z,79.81
2018-10-05T19:12:57.934Z,79.95
2018-10-05T19:15:28.221Z,79.78
2018-10-05T19:17:58.458Z,80.34
2018-10-05T19:20:29.349Z,80.98
2018-10-05T19:23:00.054Z,80.47
2018-10-05T19:25:30.414Z,79.42
2018-10-05T19:28:00.731Z,79.87
2018-10-05T19:30:30.969Z,79.35
2018-10-05T19:33:01.214Z,79.93
2018-10-05T19:35:31.445Z,80.65
2018-10-05T19:38:01.694Z,79.32
2018-10-05T19:40:31.943Z,79.74
2018-10-05T19:43:02.222Z,79.69
2018-10-05T19:45:32.447Z,80.57
2018-10-05T19:48:02.788Z,80.82
2018-10-05T19:50:33.319Z,79.89
2018-10-05T19:53:03.724Z,79.89
2018-10-05T19:55:33.838Z,80.03
2018-10-05T19:58:04.142Z,80.15
2018-10-05T20:00:34.429Z,80.50
2018-10-05T20:03:04.737Z,80.96
2018-10-05T20:05:35.057Z,80.94
2018-10-05T20:08:05.312Z,81.26
2018-10-05T20:10:35.672Z,80.57
2018-10-05T20:13:06.034Z,80.95
2018-10-05T20:15:36.295Z,80.51
2018-10-05T20:18:06.748Z,80.53
2018-10-05T20:20:36.832Z,81.05
2018-10-05T20:23:07.272Z,80.70
2018-10-05T20:25:37.616Z,80.97
2018-10-05T20:28:07.909Z,80.93
2018-10-05T20:30:38.407Z,82.03
2018-10-05T20:33:08.800Z,82.34
2018-10-05T20:35:39.126Z,81.85
2018-10-05T20:38:09.474Z,81.74
2018-10-05T20:40:39.792Z,81.84
2018-10-05T20:43:10.123Z,80.84
2018-10-05T20:45:40.400Z,81.24
2018-10-05T20:48:10.794Z,81.81
2018-10-05T20:50:41.012Z,81.44
2018-10-05T20:53:11.306Z,81.40
2018-10-05T20:55:41.548Z,81.29
2018-10-05T20:58:12.355Z,80.70
2018-10-05T21:00:43.578Z,81.71
2018-10-05T21:03:13.868Z,81.89
2018-10-05T21:05:44.129Z,81.82
2018-10-05T21:08:15.217Z,83.06
2018-10-05T21:10:45.409Z,82.00
2018-10-05T21:13:15.701Z,81.46
2018-10-05T21:15:45.938Z,82.69
2018-10-05T21:18:16.227Z,82.19
2018-10-05T21:20:46.507Z,82.95
2018-10-05T21:23:16.768Z,82.20
2018-10-05T21:25:47.018Z,81.25
2018-10-05T21:28:17.334Z,82.13
2018-10-05T21:30:47.617Z,82.83
2018-10-05T21:33:17.893Z,82.05
2018-10-05T21:35:48.132Z,82.10
2018-10-05T21:38:18.380Z,81.77
2018-10-05T21:40:48.630Z,82.55
2018-10-05T21:43:18.915Z,83.21
2018-10-05T21:45:49.268Z,82.61
2018-10-05T21:48:19.544Z,81.78
2018-10-05T21:50:49.856Z,82.29
2018-10-05T21:53:20.110Z,82.43
2018-10-05T21:55:50.656Z,82.02
2018-10-05T21:58:20.974Z,82.17
2018-10-05T22:00:51.192Z,82.78
2018-10-05T22:03:21.500Z,82.43
2018-10-05T22:05:51.791Z,82.15
2018-10-05T22:08:22.088Z,81.98
2018-10-05T22:10:52.322Z,82.17
2018-10-05T22:13:22.616Z,82.14
2018-10-05T22:15:52.878Z,82.16
2018-10-05T22:18:23.282Z,81.94
2018-10-05T22:20:53.540Z,81.63
2018-10-05T22:23:23.777Z,82.70
2018-10-05T22:25:53.977Z,82.06
2018-10-05T22:28:24.358Z,82.19
2018-10-05T22:30:54.614Z,81.93
2018-10-05T22:33:24.906Z,82.27
2018-10-05T22:35:55.135Z,82.33
2018-10-05T22:38:25.408Z,82.70
2018-10-05T22:40:55.577Z,82.81
2018-10-05T22:43:25.775Z,82.41
2018-10-05T22:45:55.945Z,83.00
2018-10-05T22:48:26.127Z,82.19
2018-10-05T22:50:56.305Z,82.04
2018-10-05T22:53:26.517Z,82.12
2018-10-05T22:55:56.730Z,82.36
2018-10-05T22:58:26.939Z,81.91
2018-10-05T23:00:57.161Z,82.10
2018-10-05T23:03:27.404Z,82.83
2018-10-05T23:05:57.673Z,82.36
2018-10-05T23:08:27.872Z,82.77
2018-10-05T23:11:00.948Z,82.70
2018-10-05T23:13:31.195Z,82.86
2018-10-05T23:16:01.444Z,82.36
2018-10-05T23:18:31.664Z,82.28
2018-10-05T23:21:01.847Z,83.14
2018-10-05T23:23:32.050Z,83.80
2018-10-05T23:26:02.260Z,83.78
2018-10-05T23:28:32.467Z,83.13
2018-10-05T23:31:02.656Z,83.35
2018-10-05T23:33:32.887Z,82.79
2018-10-05T23:36:03.071Z,83.29
2018-10-05T23:38:33.279Z,82.87
2018-10-05T23:41:03.493Z,83.50
2018-10-05T23:43:33.739Z,83.10
2018-10-05T23:46:03.956Z,82.83
2018-10-05T23:48:34.146Z,83.21
2018-10-05T23:51:04.443Z,82.97
2018-10-05T23:53:34.682Z,82.92
2018-10-05T23:56:04.867Z,82.98
2018-10-05T23:58:35.102Z,83.00
